sensor_id;sensor_type;location;lat;lon;timestamp;pressure;altitude;pressure_sealevel;temperature
20867;BMP280;10593;48.398;10.698;2023-09-18T00:00:53;95762.44;;;27.67
20867;BMP280;10593;48.398;10.698;2023-09-18T00:03:20;95758.13;;;27.66
20867;BMP280;10593;48.398;10.698;2023-09-18T00:05:47;95747.75;;;27.64
20867;BMP280;10593;48.398;10.698;2023-09-18T00:08:17;95753.28;;;27.61
20867;BMP280;10593;48.398;10.698;2023-09-18T00:10:48;95743.69;;;27.60
20867;BMP280;10593;48.398;10.698;2023-09-18T00:13:14;95743.84;;;27.59
20867;BMP280;10593;48.398;10.698;2023-09-18T00:15:43;95744.84;;;27.58
20867;BMP280;10593;48.398;10.698;2023-09-18T00:18:17;95752.88;;;27.56
20867;BMP280;10593;48.398;10.698;2023-09-18T00:20:43;95747.72;;;27.55
20867;BMP280;10593;48.398;10.698;2023-09-18T00:23:09;95738.31;;;27.52
20867;BMP280;10593;48.398;10.698;2023-09-18T00:25:36;95739.28;;;27.51
20867;BMP280;10593;48.398;10.698;2023-09-18T00:28:02;95734.13;;;27.50
20867;BMP280;10593;48.398;10.698;2023-09-18T00:30:28;95731.09;;;27.45
20867;BMP280;10593;48.398;10.698;2023-09-18T00:32:54;95731.09;;;27.45
20867;BMP280;10593;48.398;10.698;2023-09-18T00:35:20;95732.88;;;27.44
20867;BMP280;10593;48.398;10.698;2023-09-18T00:37:47;95724.28;;;27.42
20867;BMP280;10593;48.398;10.698;2023-09-18T00:40:14;95725.25;;;27.41
20867;BMP280;10593;48.398;10.698;2023-09-18T00:42:40;95718.44;;;27.39
20867;BMP280;10593;48.398;10.698;2023-09-18T00:45:06;95714.13;;;27.38
20867;BMP280;10593;48.398;10.698;2023-09-18T00:47:33;95716.94;;;27.36
20867;BMP280;10593;48.398;10.698;2023-09-18T00:49:59;95717.06;;;27.35
20867;BMP280;10593;48.398;10.698;2023-09-18T00:52:26;95719.84;;;27.33
20867;BMP280;10593;48.398;10.698;2023-09-18T00:54:52;95718.34;;;27.31
20867;BMP280;10593;48.398;10.698;2023-09-18T00:57:19;95719.44;;;27.28
20867;BMP280;10593;48.398;10.698;2023-09-18T00:59:45;95721.22;;;27.28
20867;BMP280;10593;48.398;10.698;2023-09-18T01:02:11;95722.22;;;27.27
20867;BMP280;10593;48.398;10.698;2023-09-18T01:04:37;95717.09;;;27.25
20867;BMP280;10593;48.398;10.698;2023-09-18T01:07:04;95729.44;;;27.25
20867;BMP280;10593;48.398;10.698;2023-09-18T01:09:31;95720.84;;;27.23
20867;BMP280;10593;48.398;10.698;2023-09-18T01:15:07;95710.56;;;27.20
20867;BMP280;10593;48.398;10.698;2023-09-18T01:17:36;95702.78;;;27.18
20867;BMP280;10593;48.398;10.698;2023-09-18T01:20:09;95697.66;;;27.17
20867;BMP280;10593;48.398;10.698;2023-09-18T01:22:36;95694.31;;;27.15
20867;BMP280;10593;48.398;10.698;2023-09-18T01:25:03;95684.72;;;27.14
20867;BMP280;10593;48.398;10.698;2023-09-18T01:27:28;95696.13;;;27.14
20867;BMP280;10593;48.398;10.698;2023-09-18T01:29:54;95702.50;;;27.12
20867;BMP280;10593;48.398;10.698;2023-09-18T01:32:24;95699.16;;;27.10
20867;BMP280;10593;48.398;10.698;2023-09-18T01:34:54;95699.16;;;27.10
20867;BMP280;10593;48.398;10.698;2023-09-18T01:37:25;95693.19;;;27.08
20867;BMP280;10593;48.398;10.698;2023-09-18T01:39:53;95681.09;;;27.05
20867;BMP280;10593;48.398;10.698;2023-09-18T01:42:19;95696.09;;;27.05
20867;BMP280;10593;48.398;10.698;2023-09-18T01:44:47;95680.69;;;27.00
20867;BMP280;10593;48.398;10.698;2023-09-18T01:47:18;95680.69;;;27.00
20867;BMP280;10593;48.398;10.698;2023-09-18T01:49:44;95683.44;;;26.99
20867;BMP280;10593;48.398;10.698;2023-09-18T01:52:12;95681.78;;;26.98
20867;BMP280;10593;48.398;10.698;2023-09-18T01:54:37;95688.03;;;26.97
20867;BMP280;10593;48.398;10.698;2023-09-18T01:57:04;95693.47;;;26.95
20867;BMP280;10593;48.398;10.698;2023-09-18T01:59:30;95691.94;;;26.93
20867;BMP280;10593;48.398;10.698;2023-09-18T02:01:56;95701.66;;;26.92
20867;BMP280;10593;48.398;10.698;2023-09-18T02:04:23;95698.31;;;26.90
20867;BMP280;10593;48.398;10.698;2023-09-18T02:06:50;95701.94;;;26.89
20867;BMP280;10593;48.398;10.698;2023-09-18T02:09:16;95688.88;;;26.88
20867;BMP280;10593;48.398;10.698;2023-09-18T02:11:46;95692.47;;;26.87
20867;BMP280;10593;48.398;10.698;2023-09-18T02:14:14;95688.19;;;26.86
20867;BMP280;10593;48.398;10.698;2023-09-18T02:16:42;95691.94;;;26.83
20867;BMP280;10593;48.398;10.698;2023-09-18T02:19:10;95689.44;;;26.82
20867;BMP280;10593;48.398;10.698;2023-09-18T02:21:37;95693.84;;;26.81
20867;BMP280;10593;48.398;10.698;2023-09-18T02:24:04;95688.75;;;26.80
20867;BMP280;10593;48.398;10.698;2023-09-18T02:26:30;95678.47;;;26.77
20867;BMP280;10593;48.398;10.698;2023-09-18T02:29:00;95683.03;;;26.75
20867;BMP280;10593;48.398;10.698;2023-09-18T02:31:26;95686.66;;;26.74
20867;BMP280;10593;48.398;10.698;2023-09-18T02:33:52;95686.66;;;26.74
20867;BMP280;10593;48.398;10.698;2023-09-18T02:36:18;95684.16;;;26.72
20867;BMP280;10593;48.398;10.698;2023-09-18T02:38:43;95677.34;;;26.70
20867;BMP280;10593;48.398;10.698;2023-09-18T02:41:10;95672.22;;;26.68
20867;BMP280;10593;48.398;10.698;2023-09-18T02:43:36;95662.78;;;26.66
20867;BMP280;10593;48.398;10.698;2023-09-18T02:46:06;95653.34;;;26.63
20867;BMP280;10593;48.398;10.698;2023-09-18T02:48:32;95653.34;;;26.63
20867;BMP280;10593;48.398;10.698;2023-09-18T02:51:01;95646.53;;;26.61
20867;BMP280;10593;48.398;10.698;2023-09-18T02:53:27;95640.56;;;26.59
20867;BMP280;10593;48.398;10.698;2023-09-18T02:55:56;95641.69;;;26.56
20867;BMP280;10593;48.398;10.698;2023-09-18T02:58:22;95640.03;;;26.55
20867;BMP280;10593;48.398;10.698;2023-09-18T03:00:54;95637.53;;;26.54
20867;BMP280;10593;48.398;10.698;2023-09-18T03:03:20;95634.19;;;26.52
20867;BMP280;10593;48.398;10.698;2023-09-18T03:05:46;95635.19;;;26.51
20867;BMP280;10593;48.398;10.698;2023-09-18T03:08:15;95637.13;;;26.49
20867;BMP280;10593;48.398;10.698;2023-09-18T03:10:43;95622.22;;;26.48
20867;BMP280;10593;48.398;10.698;2023-09-18T03:13:10;95620.72;;;26.45
20867;BMP280;10593;48.398;10.698;2023-09-18T03:15:37;95628.91;;;26.42
20867;BMP280;10593;48.398;10.698;2023-09-18T03:18:05;95628.91;;;26.42
20867;BMP280;10593;48.398;10.698;2023-09-18T03:20:31;95623.63;;;26.42
20867;BMP280;10593;48.398;10.698;2023-09-18T03:23:01;95621.13;;;26.41
20867;BMP280;10593;48.398;10.698;2023-09-18T03:25:27;95615.97;;;26.39
20867;BMP280;10593;48.398;10.698;2023-09-18T03:27:55;95617.91;;;26.37
20867;BMP280;10593;48.398;10.698;2023-09-18T03:30:22;95611.13;;;26.35
20867;BMP280;10593;48.398;10.698;2023-09-18T03:32:52;95611.13;;;26.35
20867;BMP280;10593;48.398;10.698;2023-09-18T03:35:19;95604.34;;;26.32
20867;BMP280;10593;48.398;10.698;2023-09-18T03:37:50;95587.84;;;26.30
20867;BMP280;10593;48.398;10.698;2023-09-18T03:40:18;95579.25;;;26.28
20867;BMP280;10593;48.398;10.698;2023-09-18T03:42:45;95570.50;;;26.28
20867;BMP280;10593;48.398;10.698;2023-09-18T03:45:11;95561.91;;;26.26
20867;BMP280;10593;48.398;10.698;2023-09-18T03:47:40;95563.84;;;26.24
20867;BMP280;10593;48.398;10.698;2023-09-18T03:50:12;95562.19;;;26.23
20867;BMP280;10593;48.398;10.698;2023-09-18T03:52:39;95547.34;;;26.22
20867;BMP280;10593;48.398;10.698;2023-09-18T03:55:06;95553.72;;;26.19
20867;BMP280;10593;48.398;10.698;2023-09-18T03:57:33;95553.84;;;26.18
20867;BMP280;10593;48.398;10.698;2023-09-18T03:59:59;95564.53;;;26.16
20867;BMP280;10593;48.398;10.698;2023-09-18T04:02:26;95556.75;;;26.15
20867;BMP280;10593;48.398;10.698;2023-09-18T04:04:53;95559.50;;;26.13
20867;BMP280;10593;48.398;10.698;2023-09-18T04:07:19;95566.03;;;26.09
20867;BMP280;10593;48.398;10.698;2023-09-18T04:09:46;95566.03;;;26.09
20867;BMP280;10593;48.398;10.698;2023-09-18T04:12:13;95568.66;;;26.09
20867;BMP280;10593;48.398;10.698;2023-09-18T04:14:39;95573.25;;;26.07
20867;BMP280;10593;48.398;10.698;2023-09-18T04:17:05;95573.25;;;26.07
20867;BMP280;10593;48.398;10.698;2023-09-18T04:19:30;95558.53;;;26.05
20867;BMP280;10593;48.398;10.698;2023-09-18T04:21:56;95563.97;;;26.03
20867;BMP280;10593;48.398;10.698;2023-09-18T04:24:23;95551.03;;;26.00
20867;BMP280;10593;48.398;10.698;2023-09-18T04:26:49;95563.13;;;26.03
20867;BMP280;10593;48.398;10.698;2023-09-18T04:29:19;95563.13;;;26.03
20867;BMP280;10593;48.398;10.698;2023-09-18T04:39:32;95588.47;;;25.94
20867;BMP280;10593;48.398;10.698;2023-09-18T04:52:21;95625.03;;;25.88
20867;BMP280;10593;48.398;10.698;2023-09-18T04:54:46;95625.03;;;25.88
20867;BMP280;10593;48.398;10.698;2023-09-18T04:57:12;95626.97;;;25.86
20867;BMP280;10593;48.398;10.698;2023-09-18T04:59:38;95626.97;;;25.86
20867;BMP280;10593;48.398;10.698;2023-09-18T05:02:04;95622.78;;;25.83
20867;BMP280;10593;48.398;10.698;2023-09-18T05:04:30;95604.50;;;25.82
20867;BMP280;10593;48.398;10.698;2023-09-18T05:06:56;95596.59;;;25.82
20867;BMP280;10593;48.398;10.698;2023-09-18T05:09:21;95592.41;;;25.80
20867;BMP280;10593;48.398;10.698;2023-09-18T05:11:47;95603.06;;;25.78
20867;BMP280;10593;48.398;10.698;2023-09-18T05:14:14;95588.25;;;25.77
20867;BMP280;10593;48.398;10.698;2023-09-18T05:16:41;95588.25;;;25.77
20867;BMP280;10593;48.398;10.698;2023-09-18T05:19:07;95594.75;;;25.73
20867;BMP280;10593;48.398;10.698;2023-09-18T05:21:33;95594.75;;;25.73
20867;BMP280;10593;48.398;10.698;2023-09-18T05:23:58;95598.34;;;25.72
20867;BMP280;10593;48.398;10.698;2023-09-18T05:26:24;95601.09;;;25.71
20867;BMP280;10593;48.398;10.698;2023-09-18T05:28:52;95601.09;;;25.71
20867;BMP280;10593;48.398;10.698;2023-09-18T05:31:19;95602.22;;;25.68
20867;BMP280;10593;48.398;10.698;2023-09-18T05:33:45;95619.81;;;25.68
20867;BMP280;10593;48.398;10.698;2023-09-18T05:36:12;95650.56;;;25.67
20867;BMP280;10593;48.398;10.698;2023-09-18T05:38:38;95640.88;;;25.68
20867;BMP280;10593;48.398;10.698;2023-09-18T05:41:04;95648.06;;;25.66
20867;BMP280;10593;48.398;10.698;2023-09-18T05:43:31;95623.53;;;25.65
20867;BMP280;10593;48.398;10.698;2023-09-18T05:45:56;95639.59;;;25.62
20867;BMP280;10593;48.398;10.698;2023-09-18T05:48:22;95631.44;;;25.65
20867;BMP280;10593;48.398;10.698;2023-09-18T05:50:48;95631.31;;;25.67
20867;BMP280;10593;48.398;10.698;2023-09-18T05:53:13;95626.31;;;25.64
20867;BMP280;10593;48.398;10.698;2023-09-18T05:55:39;95626.31;;;25.64
20867;BMP280;10593;48.398;10.698;2023-09-18T05:58:05;95625.34;;;25.65
20867;BMP280;10593;48.398;10.698;2023-09-18T06:00:33;95630.63;;;25.65
20867;BMP280;10593;48.398;10.698;2023-09-18T06:02:59;95648.34;;;25.63
20867;BMP280;10593;48.398;10.698;2023-09-18T06:05:25;95648.34;;;25.63
20867;BMP280;10593;48.398;10.698;2023-09-18T06:07:56;95643.19;;;25.61
20867;BMP280;10593;48.398;10.698;2023-09-18T06:10:22;95643.19;;;25.61
20867;BMP280;10593;48.398;10.698;2023-09-18T06:12:48;95640.56;;;25.61
20867;BMP280;10593;48.398;10.698;2023-09-18T06:15:14;95640.56;;;25.61
20867;BMP280;10593;48.398;10.698;2023-09-18T06:17:43;95649.44;;;25.60
20867;BMP280;10593;48.398;10.698;2023-09-18T06:20:11;95646.78;;;25.60
20867;BMP280;10593;48.398;10.698;2023-09-18T06:22:39;95648.59;;;25.60
20867;BMP280;10593;48.398;10.698;2023-09-18T06:25:07;95649.44;;;25.60
20867;BMP280;10593;48.398;10.698;2023-09-18T06:27:37;95649.44;;;25.60
20867;BMP280;10593;48.398;10.698;2023-09-18T06:30:04;95654.69;;;25.60
20867;BMP280;10593;48.398;10.698;2023-09-18T06:32:30;95665.53;;;25.67
20867;BMP280;10593;48.398;10.698;2023-09-18T06:34:56;95673.19;;;25.79
20867;BMP280;10593;48.398;10.698;2023-09-18T06:37:24;95672.47;;;25.97
20867;BMP280;10593;48.398;10.698;2023-09-18T06:39:50;95676.69;;;26.19
20867;BMP280;10593;48.398;10.698;2023-09-18T06:42:16;95669.25;;;26.43
20867;BMP280;10593;48.398;10.698;2023-09-18T06:44:41;95680.13;;;26.68
20867;BMP280;10593;48.398;10.698;2023-09-18T06:47:07;95683.34;;;26.91
20867;BMP280;10593;48.398;10.698;2023-09-18T06:49:33;95689.84;;;27.06
20867;BMP280;10593;48.398;10.698;2023-09-18T06:51:59;95704.31;;;27.21
20867;BMP280;10593;48.398;10.698;2023-09-18T06:54:25;95704.31;;;27.21
20867;BMP280;10593;48.398;10.698;2023-09-18T06:56:51;95706.38;;;27.27
20867;BMP280;10593;48.398;10.698;2023-09-18T06:59:16;95704.41;;;27.29
20867;BMP280;10593;48.398;10.698;2023-09-18T07:01:42;95701.66;;;27.30
20867;BMP280;10593;48.398;10.698;2023-09-18T07:04:10;95699.69;;;27.32
20867;BMP280;10593;48.398;10.698;2023-09-18T07:06:36;95683.88;;;27.32
20867;BMP280;10593;48.398;10.698;2023-09-18T07:09:03;95690.81;;;27.33
20867;BMP280;10593;48.398;10.698;2023-09-18T07:11:32;95683.75;;;27.34
20867;BMP280;10593;48.398;10.698;2023-09-18T07:13:57;95686.38;;;27.34
20867;BMP280;10593;48.398;10.698;2023-09-18T07:16:23;95679.44;;;27.33
20867;BMP280;10593;48.398;10.698;2023-09-18T07:18:49;95676.63;;;27.34
20867;BMP280;10593;48.398;10.698;2023-09-18T07:21:15;95682.75;;;27.35
20867;BMP280;10593;48.398;10.698;2023-09-18T07:23:40;95687.06;;;27.36
20867;BMP280;10593;48.398;10.698;2023-09-18T07:26:09;95684.41;;;27.36
20867;BMP280;10593;48.398;10.698;2023-09-18T07:28:35;95683.56;;;27.35
20867;BMP280;10593;48.398;10.698;2023-09-18T07:31:06;95689.69;;;27.36
20867;BMP280;10593;48.398;10.698;2023-09-18T07:33:32;95686.22;;;27.35
20867;BMP280;10593;48.398;10.698;2023-09-18T07:35:58;95690.69;;;27.35
20867;BMP280;10593;48.398;10.698;2023-09-18T07:38:24;95683.56;;;27.35
20867;BMP280;10593;48.398;10.698;2023-09-18T07:40:50;95661.34;;;27.38
20867;BMP280;10593;48.398;10.698;2023-09-18T07:43:16;95661.34;;;27.38
20867;BMP280;10593;48.398;10.698;2023-09-18T07:45:42;95656.91;;;27.38
20867;BMP280;10593;48.398;10.698;2023-09-18T07:48:08;95648.84;;;27.40
20867;BMP280;10593;48.398;10.698;2023-09-18T07:50:35;95653.84;;;27.43
20867;BMP280;10593;48.398;10.698;2023-09-18T07:53:02;95653.84;;;27.43
20867;BMP280;10593;48.398;10.698;2023-09-18T07:55:28;95661.63;;;27.44
20867;BMP280;10593;48.398;10.698;2023-09-18T07:57:55;95676.63;;;27.44
20867;BMP280;10593;48.398;10.698;2023-09-18T08:00:21;95688.84;;;27.45
20867;BMP280;10593;48.398;10.698;2023-09-18T08:02:52;95697.47;;;27.47
20867;BMP280;10593;48.398;10.698;2023-09-18T08:05:21;95695.50;;;27.49
20867;BMP280;10593;48.398;10.698;2023-09-18T08:07:46;95704.41;;;27.48
20867;BMP280;10593;48.398;10.698;2023-09-18T08:10:13;95719.28;;;27.49
20867;BMP280;10593;48.398;10.698;2023-09-18T08:12:39;95732.47;;;27.49
20867;BMP280;10593;48.398;10.698;2023-09-18T08:15:05;95735.41;;;27.46
20867;BMP280;10593;48.398;10.698;2023-09-18T08:17:32;95735.41;;;27.46
20867;BMP280;10593;48.398;10.698;2023-09-18T08:19:59;95731.09;;;27.45
20867;BMP280;10593;48.398;10.698;2023-09-18T08:22:25;95722.34;;;27.44
20867;BMP280;10593;48.398;10.698;2023-09-18T08:24:50;95720.53;;;27.45
20867;BMP280;10593;48.398;10.698;2023-09-18T08:27:19;95725.66;;;27.46
20867;BMP280;10593;48.398;10.698;2023-09-18T08:29:46;95736.91;;;27.48
20867;BMP280;10593;48.398;10.698;2023-09-18T08:32:12;95735.97;;;27.49
20867;BMP280;10593;48.398;10.698;2023-09-18T08:34:37;95734.13;;;27.50
20867;BMP280;10593;48.398;10.698;2023-09-18T08:37:05;95743.72;;;27.51
20867;BMP280;10593;48.398;10.698;2023-09-18T08:39:31;95748.03;;;27.52
20867;BMP280;10593;48.398;10.698;2023-09-18T08:42:04;95740.94;;;27.52
20867;BMP280;10593;48.398;10.698;2023-09-18T08:44:31;95746.06;;;27.54
20867;BMP280;10593;48.398;10.698;2023-09-18T08:46:57;95746.91;;;27.54
20867;BMP280;10593;48.398;10.698;2023-09-18T08:49:26;95756.38;;;27.57
20867;BMP280;10593;48.398;10.698;2023-09-18T08:51:55;95762.47;;;27.57
20867;BMP280;10593;48.398;10.698;2023-09-18T08:54:22;95762.47;;;27.57
20867;BMP280;10593;48.398;10.698;2023-09-18T08:56:51;95763.03;;;27.61
20867;BMP280;10593;48.398;10.698;2023-09-18T08:59:21;95765.66;;;27.61
20867;BMP280;10593;48.398;10.698;2023-09-18T09:01:48;95763.72;;;27.63
20867;BMP280;10593;48.398;10.698;2023-09-18T09:04:14;95763.72;;;27.63
20867;BMP280;10593;48.398;10.698;2023-09-18T09:06:40;95762.59;;;27.65
20867;BMP280;10593;48.398;10.698;2023-09-18T09:09:06;95766.91;;;27.66
20867;BMP280;10593;48.398;10.698;2023-09-18T09:11:34;95766.75;;;27.68
20867;BMP280;10593;48.398;10.698;2023-09-18T09:14:14;95760.50;;;27.69
20867;BMP280;10593;48.398;10.698;2023-09-18T09:16:56;95763.84;;;27.71
20867;BMP280;10593;48.398;10.698;2023-09-18T09:19:32;95758.56;;;27.71
20867;BMP280;10593;48.398;10.698;2023-09-18T09:22:01;95759.28;;;27.73
20867;BMP280;10593;48.398;10.698;2023-09-18T09:24:43;95750.50;;;27.72
20867;BMP280;10593;48.398;10.698;2023-09-18T09:27:10;95761.63;;;27.76
20867;BMP280;10593;48.398;10.698;2023-09-18T09:29:37;95765.25;;;27.75
20867;BMP280;10593;48.398;10.698;2023-09-18T09:32:18;95750.09;;;27.77
20867;BMP280;10593;48.398;10.698;2023-09-18T09:34:45;95757.03;;;27.78
20867;BMP280;10593;48.398;10.698;2023-09-18T09:37:12;95756.06;;;27.79
20867;BMP280;10593;48.398;10.698;2023-09-18T09:39:50;95756.06;;;27.79
20867;BMP280;10593;48.398;10.698;2023-09-18T09:42:19;95760.38;;;27.80
20867;BMP280;10593;48.398;10.698;2023-09-18T09:45:04;95765.50;;;27.81
20867;BMP280;10593;48.398;10.698;2023-09-18T09:47:37;95763.56;;;27.83
20867;BMP280;10593;48.398;10.698;2023-09-18T09:50:16;95760.78;;;27.85
20867;BMP280;10593;48.398;10.698;2023-09-18T09:52:47;95760.78;;;27.85
20867;BMP280;10593;48.398;10.698;2023-09-18T09:55:32;95766.88;;;27.85
20867;BMP280;10593;48.398;10.698;2023-09-18T09:58:02;95769.41;;;27.87
20867;BMP280;10593;48.398;10.698;2023-09-18T10:03:18;95775.50;;;27.87
20867;BMP280;10593;48.398;10.698;2023-09-18T10:05:48;95775.50;;;27.87
20867;BMP280;10593;48.398;10.698;2023-09-18T10:08:27;95779.00;;;27.88
20867;BMP280;10593;48.398;10.698;2023-09-18T10:11:01;95777.03;;;27.90
20867;BMP280;10593;48.398;10.698;2023-09-18T10:13:47;95776.19;;;27.89
20867;BMP280;10593;48.398;10.698;2023-09-18T10:16:19;95784.97;;;27.90
20867;BMP280;10593;48.398;10.698;2023-09-18T10:22:30;95797.47;;;27.88
20867;BMP280;10593;48.398;10.698;2023-09-18T10:27:48;95810.25;;;27.83
20867;BMP280;10593;48.398;10.698;2023-09-18T10:30:20;95822.66;;;27.82
20867;BMP280;10593;48.398;10.698;2023-09-18T10:32:50;95822.66;;;27.82
20867;BMP280;10593;48.398;10.698;2023-09-18T10:35:16;95823.34;;;27.84
20867;BMP280;10593;48.398;10.698;2023-09-18T10:37:42;95827.81;;;27.84
20867;BMP280;10593;48.398;10.698;2023-09-18T10:40:12;95832.13;;;27.85
20867;BMP280;10593;48.398;10.698;2023-09-18T10:42:40;95831.41;;;27.83
20867;BMP280;10593;48.398;10.698;2023-09-18T10:45:11;95839.47;;;27.81
20867;BMP280;10593;48.398;10.698;2023-09-18T10:47:44;95858.09;;;27.80
20867;BMP280;10593;48.398;10.698;2023-09-18T10:50:27;95858.09;;;27.80
20867;BMP280;10593;48.398;10.698;2023-09-18T10:52:53;95866.19;;;27.78
20867;BMP280;10593;48.398;10.698;2023-09-18T10:55:21;95870.63;;;27.78
20867;BMP280;10593;48.398;10.698;2023-09-18T10:57:52;95877.84;;;27.76
20867;BMP280;10593;48.398;10.698;2023-09-18T11:00:18;95878.81;;;27.75
20867;BMP280;10593;48.398;10.698;2023-09-18T11:02:52;95887.84;;;27.72
20867;BMP280;10593;48.398;10.698;2023-09-18T11:05:32;95877.41;;;27.71
20867;BMP280;10593;48.398;10.698;2023-09-18T11:08:33;95877.41;;;27.71
20867;BMP280;10593;48.398;10.698;2023-09-18T11:11:07;95877.81;;;27.66
20867;BMP280;10593;48.398;10.698;2023-09-18T11:13:46;95885.06;;;27.64
20867;BMP280;10593;48.398;10.698;2023-09-18T11:16:32;95878.53;;;27.59
20867;BMP280;10593;48.398;10.698;2023-09-18T11:24:20;95887.25;;;27.50
20867;BMP280;10593;48.398;10.698;2023-09-18T11:26:48;95887.25;;;27.50
20867;BMP280;10593;48.398;10.698;2023-09-18T11:29:25;95907.00;;;27.46
20867;BMP280;10593;48.398;10.698;2023-09-18T11:31:56;95910.84;;;27.42
20867;BMP280;10593;48.398;10.698;2023-09-18T11:34:26;95910.84;;;27.42
20867;BMP280;10593;48.398;10.698;2023-09-18T11:36:52;95907.00;;;27.36
20867;BMP280;10593;48.398;10.698;2023-09-18T11:39:41;95907.00;;;27.36
20867;BMP280;10593;48.398;10.698;2023-09-18T11:42:14;95919.34;;;27.36
20867;BMP280;10593;48.398;10.698;2023-09-18T11:44:42;95934.47;;;27.34
20867;BMP280;10593;48.398;10.698;2023-09-18T11:47:14;95940.03;;;27.31
20867;BMP280;10593;48.398;10.698;2023-09-18T11:49:52;95947.22;;;27.29
20867;BMP280;10593;48.398;10.698;2023-09-18T11:52:22;95946.53;;;27.27
20867;BMP280;10593;48.398;10.698;2023-09-18T11:54:48;95946.97;;;27.22
20867;BMP280;10593;48.398;10.698;2023-09-18T11:57:15;95958.91;;;27.17
20867;BMP280;10593;48.398;10.698;2023-09-18T11:59:43;95956.66;;;27.12
20867;BMP280;10593;48.398;10.698;2023-09-18T12:02:30;95951.63;;;27.09
20867;BMP280;10593;48.398;10.698;2023-09-18T12:05:10;95949.09;;;27.08
20867;BMP280;10593;48.398;10.698;2023-09-18T12:07:37;95952.72;;;27.07
20867;BMP280;10593;48.398;10.698;2023-09-18T12:10:06;95950.19;;;27.05
20867;BMP280;10593;48.398;10.698;2023-09-18T12:12:33;95955.47;;;27.05
20867;BMP280;10593;48.398;10.698;2023-09-18T12:14:59;95966.03;;;27.05
20867;BMP280;10593;48.398;10.698;2023-09-18T12:17:26;95965.22;;;27.05
20867;BMP280;10593;48.398;10.698;2023-09-18T12:19:55;95968.81;;;27.04
20867;BMP280;10593;48.398;10.698;2023-09-18T12:22:30;95970.88;;;27.00
20867;BMP280;10593;48.398;10.698;2023-09-18T12:25:12;95970.88;;;27.00
20867;BMP280;10593;48.398;10.698;2023-09-18T12:27:51;95965.72;;;26.99
20867;BMP280;10593;48.398;10.698;2023-09-18T12:30:17;95967.66;;;26.97
20867;BMP280;10593;48.398;10.698;2023-09-18T12:32:47;95964.44;;;26.93
20867;BMP280;10593;48.398;10.698;2023-09-18T12:35:14;95967.34;;;26.90
20867;BMP280;10593;48.398;10.698;2023-09-18T12:37:41;95965.00;;;26.87
20867;BMP280;10593;48.398;10.698;2023-09-18T12:40:20;95966.94;;;26.85
20867;BMP280;10593;48.398;10.698;2023-09-18T12:42:47;95968.72;;;26.85
20867;BMP280;10593;48.398;10.698;2023-09-18T12:45:13;95963.59;;;26.83
20867;BMP280;10593;48.398;10.698;2023-09-18T12:47:40;95960.97;;;26.83
20867;BMP280;10593;48.398;10.698;2023-09-18T12:50:08;95959.13;;;26.84
20867;BMP280;10593;48.398;10.698;2023-09-18T12:52:36;95965.25;;;26.84
20867;BMP280;10593;48.398;10.698;2023-09-18T12:55:02;95964.41;;;26.84
20867;BMP280;10593;48.398;10.698;2023-09-18T12:57:33;95960.22;;;26.81
20867;BMP280;10593;48.398;10.698;2023-09-18T12:59:59;95958.56;;;26.80
20867;BMP280;10593;48.398;10.698;2023-09-18T13:02:28;95952.47;;;26.80
20867;BMP280;10593;48.398;10.698;2023-09-18T13:04:56;95950.91;;;26.77
20867;BMP280;10593;48.398;10.698;2023-09-18T13:07:24;95950.22;;;26.75
20867;BMP280;10593;48.398;10.698;2023-09-18T13:10:05;95953.13;;;26.72
20867;BMP280;10593;48.398;10.698;2023-09-18T13:15:09;95924.50;;;26.68
20867;BMP280;10593;48.398;10.698;2023-09-18T13:17:40;95925.59;;;26.65
20867;BMP280;10593;48.398;10.698;2023-09-18T13:20:20;95932.53;;;26.66
20867;BMP280;10593;48.398;10.698;2023-09-18T13:22:56;95926.44;;;26.66
20867;BMP280;10593;48.398;10.698;2023-09-18T13:25:32;95926.44;;;26.66
20867;BMP280;10593;48.398;10.698;2023-09-18T13:28:01;95929.19;;;26.64
20867;BMP280;10593;48.398;10.698;2023-09-18T13:30:29;95915.06;;;26.65
20867;BMP280;10593;48.398;10.698;2023-09-18T13:43:18;95849.28;;;26.64
20867;BMP280;10593;48.398;10.698;2023-09-18T13:45:44;95849.28;;;26.64
20867;BMP280;10593;48.398;10.698;2023-09-18T13:48:11;95856.50;;;26.62
20867;BMP280;10593;48.398;10.698;2023-09-18T13:50:38;95857.44;;;26.61
